createdAt,value
2018-11-21T00:00:15.688Z,93.62
2018-11-21T00:02:42.031Z,93.79
2018-11-21T00:05:09.279Z,93.97
2018-11-21T00:07:35.631Z,94.83
2018-11-21T00:10:01.972Z,94.78
2018-11-21T00:12:28.407Z,94.83
2018-11-21T00:14:57.424Z,94.82
2018-11-21T00:17:21.442Z,94.58
2018-11-21T00:19:48.288Z,94.53
2018-11-21T00:22:14.637Z,94.56
2018-11-21T00:24:41.578Z,94.88
2018-11-21T00:27:07.924Z,95.00
2018-11-21T00:29:34.379Z,95.00
2018-11-21T00:32:00.723Z,94.71
2018-11-21T00:34:27.644Z,94.70
2018-11-21T00:36:54.056Z,94.56
2018-11-21T00:39:20.409Z,94.49
2018-11-21T00:41:46.838Z,94.20
2018-11-21T00:44:13.498Z,94.52
2018-11-21T00:46:39.933Z,93.99
2018-11-21T00:49:06.281Z,94.07
2018-11-21T00:51:32.629Z,94.57
2018-11-21T00:53:59.925Z,94.79
2018-11-21T00:56:26.354Z,95.08
2018-11-21T00:58:52.694Z,94.93
2018-11-21T01:01:19.311Z,95.31
2018-11-21T01:03:46.233Z,95.18
2018-11-21T01:06:12.685Z,95.03
2018-11-21T01:08:39.031Z,95.45
2018-11-21T01:11:05.694Z,95.58
2018-11-21T01:13:32.118Z,95.67
2018-11-21T01:15:58.473Z,95.56
2018-11-21T01:18:24.892Z,96.07
2018-11-21T01:20:51.691Z,95.66
2018-11-21T01:23:18.110Z,95.25
2018-11-21T01:25:44.540Z,95.19
2018-11-21T01:28:11.325Z,95.12
2018-11-21T01:30:37.688Z,95.17
2018-11-21T01:33:09.613Z,95.64
2018-11-21T01:35:30.539Z,95.97
2018-11-21T01:37:56.881Z,96.18
2018-11-21T01:40:23.224Z,96.42
2018-11-21T01:42:49.645Z,96.07
2018-11-21T01:45:16.523Z,96.23
2018-11-21T01:47:42.959Z,96.59
2018-11-21T01:50:09.370Z,96.79
2018-11-21T01:52:36.120Z,96.59
2018-11-21T01:55:02.465Z,96.46
2018-11-21T01:57:28.885Z,96.24
2018-11-21T01:59:55.726Z,96.21
2018-11-21T02:02:22.079Z,96.18
2018-11-21T02:04:48.497Z,96.51
2018-11-21T02:07:14.916Z,96.78
2018-11-21T02:09:41.259Z,97.05
2018-11-21T02:12:08.111Z,97.56
2018-11-21T02:14:34.871Z,97.58
2018-11-21T02:17:01.716Z,97.62
2018-11-21T02:19:28.215Z,97.54
2018-11-21T02:21:54.639Z,97.41
2018-11-21T02:24:21.403Z,97.43
2018-11-21T02:26:47.832Z,97.45
2018-11-21T02:29:14.179Z,97.40
2018-11-21T02:31:40.622Z,97.43
2018-11-21T02:34:07.452Z,97.49
2018-11-21T02:36:33.875Z,97.70
2018-11-21T02:39:00.211Z,97.79
2018-11-21T02:41:26.558Z,98.15
2018-11-21T02:43:53.366Z,98.26
2018-11-21T02:46:19.806Z,98.21
2018-11-21T02:48:46.237Z,98.30
2018-11-21T02:51:12.578Z,98.52
2018-11-21T02:53:39.488Z,98.57
2018-11-21T02:56:05.837Z,98.70
2018-11-21T02:58:32.281Z,98.67
2018-11-21T03:00:58.723Z,98.58
2018-11-21T03:03:25.546Z,98.13
2018-11-21T03:05:51.994Z,98.02
2018-11-21T03:08:18.408Z,98.02
2018-11-21T03:10:45.246Z,98.19
2018-11-21T03:13:11.779Z,98.59
2018-11-21T03:15:38.212Z,98.93
2018-11-21T03:18:04.638Z,99.14
2018-11-21T03:20:31.480Z,99.19
2018-11-21T03:22:57.930Z,99.27
2018-11-21T03:25:24.268Z,99.19
2018-11-21T03:27:50.773Z,99.34
2018-11-21T03:30:17.422Z,99.64
2018-11-21T03:32:43.850Z,99.88
2018-11-21T03:35:10.277Z,100.00
2018-11-21T03:37:36.707Z,100.00
2018-11-21T03:40:03.153Z,100.00
2018-11-21T03:42:29.999Z,100.00
2018-11-21T03:44:56.728Z,100.00
2018-11-21T03:47:23.162Z,100.00
2018-11-21T03:49:51.043Z,100.00
2018-11-21T03:57:46.348Z,100.00
2018-11-21T04:02:56.757Z,100.00
2018-11-21T04:05:23.165Z,100.00
2018-11-21T04:07:52.974Z,100.00
2018-11-21T04:12:51.417Z,100.00
2018-11-21T04:15:18.048Z,100.00
2018-11-21T04:17:44.537Z,100.00
2018-11-21T04:20:10.971Z,100.00
2018-11-21T04:25:14.987Z,100.00
2018-11-21T04:32:57.738Z,100.00
2018-11-21T04:37:55.666Z,100.00
2018-11-21T04:40:22.560Z,100.00
2018-11-21T04:42:48.996Z,100.00
2018-11-21T04:45:15.527Z,100.00
2018-11-21T04:47:41.961Z,100.00
2018-11-21T04:52:52.926Z,100.00
2018-11-21T04:55:19.377Z,100.00
2018-11-21T04:57:45.963Z,100.00
2018-11-21T05:00:12.958Z,100.00
2018-11-21T05:02:39.497Z,100.00
2018-11-21T05:05:05.929Z,100.00
2018-11-21T05:07:32.749Z,100.00
2018-11-21T05:09:59.107Z,100.00
2018-11-21T05:12:25.555Z,100.00
2018-11-21T05:14:52.213Z,100.00
2018-11-21T05:17:18.595Z,100.00
2018-11-21T05:19:45.028Z,100.00
2018-11-21T05:22:11.966Z,100.00
2018-11-21T05:24:38.319Z,100.00
2018-11-21T05:27:04.744Z,100.00
2018-11-21T05:29:31.469Z,100.00
2018-11-21T05:31:57.905Z,100.00
2018-11-21T05:34:24.333Z,100.00
2018-11-21T05:36:51.167Z,100.00
2018-11-21T05:39:17.514Z,100.00
2018-11-21T05:41:43.980Z,100.00
2018-11-21T05:44:13.185Z,100.00
2018-11-21T05:46:39.541Z,100.00
2018-11-21T05:49:05.961Z,100.00
2018-11-21T05:51:35.500Z,100.00
2018-11-21T05:54:02.034Z,100.00
2018-11-21T05:56:28.388Z,100.00
2018-11-21T05:58:55.112Z,100.00
2018-11-21T06:01:23.340Z,100.00
2018-11-21T06:03:49.679Z,100.00
2018-11-21T06:06:16.396Z,100.00
2018-11-21T06:08:42.830Z,100.00
2018-11-21T06:11:09.268Z,100.00
2018-11-21T06:13:35.912Z,100.00
2018-11-21T06:16:02.337Z,100.00
2018-11-21T06:18:28.709Z,100.00
2018-11-21T06:20:55.534Z,100.00
2018-11-21T06:23:21.886Z,100.00
2018-11-21T06:25:48.322Z,100.00
2018-11-21T06:28:15.048Z,100.00
2018-11-21T06:30:41.482Z,100.00
2018-11-21T06:33:07.830Z,100.00
2018-11-21T06:35:34.651Z,100.00
2018-11-21T06:38:03.034Z,100.00
2018-11-21T06:40:27.466Z,100.00
2018-11-21T06:42:54.192Z,100.00
2018-11-21T06:45:20.694Z,100.00
2018-11-21T06:47:50.042Z,100.00
2018-11-21T06:50:16.770Z,100.00
2018-11-21T06:52:43.259Z,100.00
2018-11-21T06:55:09.698Z,100.00
2018-11-21T06:57:36.353Z,100.00
2018-11-21T07:00:02.708Z,100.00
2018-11-21T07:02:29.134Z,100.00
2018-11-21T07:04:55.939Z,100.00
2018-11-21T07:07:22.381Z,100.00
2018-11-21T07:09:49.200Z,100.00
2018-11-21T07:12:16.524Z,100.00
2018-11-21T07:14:42.944Z,100.00
2018-11-21T07:17:09.366Z,100.00
2018-11-21T07:19:36.360Z,100.00
2018-11-21T07:22:02.747Z,100.00
2018-11-21T07:24:29.101Z,100.00
2018-11-21T07:26:55.834Z,100.00
2018-11-21T07:29:22.263Z,100.00
2018-11-21T07:31:48.696Z,100.00
2018-11-21T07:34:15.463Z,100.00
2018-11-21T07:36:41.888Z,100.00
2018-11-21T07:39:08.659Z,100.00
2018-11-21T07:41:35.370Z,100.00
2018-11-21T07:44:02.245Z,100.00
2018-11-21T07:46:29.008Z,100.00
2018-11-21T07:48:55.740Z,100.00
2018-11-21T07:51:22.085Z,100.00
2018-11-21T07:53:48.521Z,100.00
2018-11-21T07:56:15.164Z,100.00
2018-11-21T07:58:41.593Z,100.00
2018-11-21T08:01:08.179Z,100.00
2018-11-21T08:03:34.910Z,100.00
2018-11-21T08:06:01.343Z,100.00
2018-11-21T08:08:27.769Z,100.00
2018-11-21T08:10:54.117Z,99.85
2018-11-21T08:13:20.542Z,99.64
2018-11-21T08:15:47.316Z,99.75
2018-11-21T08:18:13.776Z,99.60
2018-11-21T08:20:40.078Z,99.53
2018-11-21T08:23:06.793Z,99.47
2018-11-21T08:25:33.230Z,99.31
2018-11-21T08:27:59.584Z,99.22
2018-11-21T08:30:26.308Z,98.95
2018-11-21T08:32:52.751Z,98.71
2018-11-21T08:35:19.096Z,98.44
2018-11-21T08:37:45.734Z,98.27
2018-11-21T08:40:12.176Z,98.13
2018-11-21T08:42:38.856Z,97.88
2018-11-21T08:45:07.871Z,97.46
2018-11-21T08:47:34.297Z,97.07
2018-11-21T08:50:00.758Z,96.70
2018-11-21T08:52:27.912Z,96.39
2018-11-21T08:54:54.376Z,95.93
2018-11-21T08:57:20.695Z,95.59
2018-11-21T08:59:47.412Z,95.19
2018-11-21T09:02:13.773Z,94.63
2018-11-21T09:04:40.193Z,94.34
2018-11-21T09:07:07.341Z,93.92
2018-11-21T09:09:33.708Z,93.35
2018-11-21T09:12:00.972Z,92.89
2018-11-21T09:14:27.723Z,92.27
2018-11-21T09:16:54.197Z,91.90
2018-11-21T09:19:22.067Z,91.47
2018-11-21T09:21:48.715Z,91.10
2018-11-21T09:24:15.141Z,90.73
2018-11-21T09:26:43.288Z,90.41
2018-11-21T09:29:13.172Z,90.28
2018-11-21T09:31:41.325Z,89.87
2018-11-21T09:34:07.745Z,89.43
2018-11-21T09:36:34.933Z,89.42
2018-11-21T09:39:01.282Z,89.07
2018-11-21T09:41:27.747Z,88.68
2018-11-21T09:43:54.475Z,88.59
2018-11-21T09:46:22.251Z,88.27
2018-11-21T09:48:47.256Z,88.24
2018-11-21T09:51:14.048Z,88.10
2018-11-21T09:53:40.396Z,88.42
2018-11-21T09:56:06.836Z,87.60
2018-11-21T09:58:33.542Z,87.35
2018-11-21T10:01:02.673Z,86.82
2018-11-21T10:03:29.025Z,86.60
2018-11-21T10:05:55.767Z,86.74
2018-11-21T10:08:22.119Z,86.31
2018-11-21T10:10:48.553Z,86.29
2018-11-21T10:13:15.283Z,86.35
2018-11-21T10:15:41.636Z,85.69
2018-11-21T10:18:08.062Z,85.03
2018-11-21T10:20:34.705Z,84.86
2018-11-21T10:23:01.064Z,84.43
2018-11-21T10:25:27.491Z,84.06
2018-11-21T10:28:03.197Z,84.10
2018-11-21T10:30:23.523Z,83.77
2018-11-21T10:32:49.957Z,83.40
2018-11-21T10:35:16.677Z,82.90
2018-11-21T10:37:43.022Z,82.56
2018-11-21T10:40:09.448Z,82.39
2018-11-21T10:42:35.796Z,81.90
2018-11-21T10:45:02.235Z,82.37
2018-11-21T10:47:28.875Z,82.76
2018-11-21T10:49:55.302Z,83.21
2018-11-21T10:52:23.741Z,83.39
2018-11-21T10:54:54.280Z,83.44
2018-11-21T10:57:20.647Z,83.51
2018-11-21T10:59:49.099Z,83.79
2018-11-21T11:02:13.695Z,83.60
2018-11-21T11:04:40.047Z,82.73
2018-11-21T11:07:06.489Z,82.47
2018-11-21T11:09:33.141Z,81.83
2018-11-21T11:11:59.590Z,81.80
2018-11-21T11:14:25.939Z,81.47
2018-11-21T11:16:52.581Z,81.61
2018-11-21T11:19:19.016Z,81.54
2018-11-21T11:21:45.431Z,80.89
2018-11-21T11:24:12.143Z,79.70
2018-11-21T11:26:38.591Z,79.99
2018-11-21T11:29:04.946Z,79.64
2018-11-21T11:31:31.581Z,79.38
2018-11-21T11:33:58.012Z,79.54
2018-11-21T11:36:24.434Z,79.70
2018-11-21T11:38:51.176Z,78.96
2018-11-21T11:41:17.533Z,78.44
2018-11-21T11:43:43.967Z,78.58
2018-11-21T11:46:10.676Z,78.50
2018-11-21T11:48:37.039Z,78.67
2018-11-21T11:51:05.215Z,79.73
2018-11-21T11:53:32.030Z,79.63
2018-11-21T11:55:58.384Z,79.55
2018-11-21T11:58:24.736Z,79.46
2018-11-21T12:00:51.466Z,78.33
2018-11-21T12:03:17.905Z,78.61
2018-11-21T12:05:44.252Z,78.25
2018-11-21T12:08:10.896Z,78.34
2018-11-21T12:10:37.343Z,78.67
2018-11-21T12:13:06.105Z,78.48
2018-11-21T12:15:32.831Z,77.37
2018-11-21T12:17:59.446Z,77.12
2018-11-21T12:20:25.873Z,76.40
2018-11-21T12:22:52.506Z,76.51
2018-11-21T12:25:18.872Z,76.50
2018-11-21T12:27:45.292Z,76.71
2018-11-21T12:30:12.000Z,76.40
2018-11-21T12:32:39.336Z,76.86
2018-11-21T12:35:04.993Z,77.12
2018-11-21T12:37:34.064Z,77.90
2018-11-21T12:40:00.492Z,76.77
2018-11-21T12:42:26.847Z,76.55
2018-11-21T12:44:53.565Z,76.09
2018-11-21T12:47:19.921Z,76.33
2018-11-21T12:49:46.269Z,76.88
2018-11-21T12:52:14.797Z,76.27
2018-11-21T12:54:39.452Z,76.20
2018-11-21T12:57:05.797Z,75.65
2018-11-21T12:59:32.441Z,75.75
2018-11-21T13:01:58.891Z,76.44
2018-11-21T13:04:25.247Z,76.69
2018-11-21T13:06:52.135Z,76.45
2018-11-21T13:09:18.490Z,76.09
2018-11-21T13:11:45.189Z,76.20
2018-11-21T13:14:13.738Z,76.22
2018-11-21T13:16:40.092Z,76.20
2018-11-21T13:19:06.968Z,76.15
2018-11-21T13:21:33.320Z,75.84
2018-11-21T13:23:59.666Z,75.71
2018-11-21T13:26:26.462Z,75.91
2018-11-21T13:28:52.808Z,75.91
2018-11-21T13:31:30.995Z,75.47
2018-11-21T13:33:57.969Z,75.82
2018-11-21T13:36:25.210Z,75.60
2018-11-21T13:38:51.653Z,75.72
2018-11-21T13:41:18.500Z,75.48
2018-11-21T13:43:44.932Z,75.02
2018-11-21T13:46:11.575Z,75.58
2018-11-21T13:48:38.403Z,75.29
2018-11-21T13:51:04.838Z,76.17
2018-11-21T13:53:31.272Z,77.10
2018-11-21T13:55:58.115Z,76.99
2018-11-21T13:58:24.641Z,76.88
2018-11-21T14:00:54.081Z,76.39
2018-11-21T14:03:20.724Z,76.51
2018-11-21T14:05:47.168Z,77.45
2018-11-21T14:08:13.591Z,77.45
2018-11-21T14:10:40.232Z,78.16
2018-11-21T14:13:06.714Z,78.18
2018-11-21T14:15:33.085Z,78.69
2018-11-21T14:18:01.943Z,79.84
2018-11-21T14:20:26.421Z,81.13
2018-11-21T14:22:52.770Z,81.36
2018-11-21T14:25:19.994Z,82.03
2018-11-21T14:27:46.446Z,82.68
2018-11-21T14:30:12.801Z,83.26
2018-11-21T14:32:39.522Z,83.84
2018-11-21T14:35:07.132Z,85.14
2018-11-21T14:37:32.381Z,84.93
2018-11-21T14:40:00.022Z,84.65
2018-11-21T14:42:26.895Z,85.21
2018-11-21T14:44:53.244Z,85.63
2018-11-21T14:47:20.238Z,85.78
2018-11-21T14:49:49.106Z,86.12
2018-11-21T14:52:15.571Z,86.35
2018-11-21T14:54:42.402Z,86.46
2018-11-21T14:57:09.296Z,87.13
2018-11-21T14:59:35.740Z,87.48
2018-11-21T15:02:02.378Z,87.90
2018-11-21T15:04:28.771Z,88.10
2018-11-21T15:06:55.210Z,88.31
2018-11-21T15:09:21.854Z,88.72
2018-11-21T15:11:48.475Z,89.01
2018-11-21T15:14:14.890Z,89.35
2018-11-21T15:16:41.719Z,89.83
2018-11-21T15:19:09.184Z,90.38
2018-11-21T15:21:34.582Z,90.85
2018-11-21T15:24:01.428Z,91.46
2018-11-21T15:26:27.952Z,92.05
2018-11-21T15:28:57.050Z,93.24
2018-11-21T15:31:23.970Z,93.09
2018-11-21T15:33:50.325Z,93.16
2018-11-21T15:36:16.771Z,93.44
2018-11-21T15:38:43.417Z,93.82
2018-11-21T15:41:09.851Z,94.25
2018-11-21T15:43:37.307Z,94.50
2018-11-21T15:46:03.654Z,94.65
2018-11-21T15:48:32.927Z,94.88
2018-11-21T15:50:59.649Z,95.01
2018-11-21T15:53:28.849Z,95.29
2018-11-21T15:55:55.283Z,95.58
2018-11-21T15:58:22.117Z,95.91
2018-11-21T16:00:48.559Z,96.13
2018-11-21T16:03:14.989Z,96.28
2018-11-21T16:05:41.872Z,96.42
2018-11-21T16:08:08.253Z,96.53
2018-11-21T16:10:37.472Z,96.71
2018-11-21T16:13:07.037Z,96.81
2018-11-21T16:15:35.668Z,96.71
2018-11-21T16:17:59.920Z,96.27
2018-11-21T16:20:26.568Z,95.73
2018-11-21T16:22:53.007Z,95.38
2018-11-21T16:25:22.246Z,95.19
2018-11-21T16:27:53.085Z,94.88
2018-11-21T16:30:20.687Z,94.70
2018-11-21T16:32:50.061Z,94.52
2018-11-21T16:35:16.862Z,94.46
2018-11-21T16:37:43.267Z,94.46
2018-11-21T16:40:09.708Z,94.17
2018-11-21T16:42:36.424Z,94.07
2018-11-21T16:45:02.868Z,94.24
2018-11-21T16:47:29.220Z,94.55
2018-11-21T16:49:57.845Z,94.67
2018-11-21T16:52:22.471Z,94.72
2018-11-21T16:54:48.815Z,95.02
2018-11-21T16:57:15.628Z,95.46
2018-11-21T16:59:42.041Z,95.47
2018-11-21T17:02:08.968Z,95.53
2018-11-21T17:04:35.670Z,95.63
2018-11-21T17:07:02.015Z,95.69
2018-11-21T17:09:28.501Z,95.61
2018-11-21T17:11:55.146Z,95.64
2018-11-21T17:14:21.569Z,95.68
2018-11-21T17:16:48.481Z,95.81
2018-11-21T17:19:15.163Z,95.89
2018-11-21T17:21:41.613Z,95.49
2018-11-21T17:24:07.967Z,95.22
2018-11-21T17:26:34.984Z,94.75
2018-11-21T17:29:01.336Z,94.41
2018-11-21T17:31:27.822Z,94.02
2018-11-21T17:33:54.672Z,93.90
2018-11-21T17:36:22.831Z,93.79
2018-11-21T17:38:49.288Z,93.63
2018-11-21T17:41:15.917Z,94.48
2018-11-21T17:43:42.456Z,93.42
2018-11-21T17:46:08.885Z,93.00
2018-11-21T17:48:35.315Z,92.68
2018-11-21T17:51:03.849Z,92.56
2018-11-21T17:53:33.092Z,92.42
2018-11-21T17:55:59.512Z,92.43
2018-11-21T17:58:26.214Z,92.54
2018-11-21T18:00:52.992Z,92.73
2018-11-21T18:03:19.429Z,92.52
2018-11-21T18:05:45.855Z,92.49
2018-11-21T18:08:12.688Z,92.41
2018-11-21T18:10:53.336Z,92.22
2018-11-21T18:13:05.820Z,92.27
2018-11-21T18:15:35.685Z,92.26
2018-11-21T18:18:02.113Z,92.03
2018-11-21T18:20:28.542Z,91.97
2018-11-21T18:22:55.386Z,91.77
2018-11-21T18:25:21.811Z,91.57
2018-11-21T18:27:52.954Z,91.57
2018-11-21T18:30:17.755Z,91.48
2018-11-21T18:32:44.185Z,91.31
2018-11-21T18:35:11.283Z,91.28
2018-11-21T18:37:38.071Z,91.24
2018-11-21T18:40:04.505Z,91.10
2018-11-21T18:42:30.940Z,91.00
2018-11-21T18:44:57.778Z,91.05
2018-11-21T18:47:27.127Z,91.05
2018-11-21T18:49:53.563Z,91.28
2018-11-21T18:52:20.343Z,91.14
2018-11-21T18:54:46.790Z,91.17
2018-11-21T18:57:13.220Z,91.25
2018-11-21T18:59:40.050Z,91.32
2018-11-21T19:02:06.907Z,91.57
2018-11-21T19:04:42.367Z,91.86
2018-11-21T19:07:09.172Z,92.24
2018-11-21T19:09:36.271Z,92.78
2018-11-21T19:12:08.533Z,93.17
2018-11-21T19:14:35.361Z,93.51
2018-11-21T19:17:01.793Z,93.94
2018-11-21T19:19:28.219Z,94.25
2018-11-21T19:21:57.245Z,94.50
2018-11-21T19:24:21.292Z,94.71
2018-11-21T19:26:47.720Z,94.86
2018-11-21T19:29:14.954Z,94.98
2018-11-21T19:31:41.295Z,95.21
2018-11-21T19:34:07.727Z,95.45
2018-11-21T19:36:34.551Z,95.50
2018-11-21T19:39:01.407Z,95.53
2018-11-21T19:41:27.837Z,95.61
2018-11-21T19:43:54.483Z,95.60
2018-11-21T19:46:20.917Z,95.58
2018-11-21T19:48:47.465Z,95.52
2018-11-21T19:51:14.170Z,95.46
2018-11-21T19:53:40.584Z,95.46
2018-11-21T19:56:07.016Z,95.38
2018-11-21T19:58:33.663Z,95.20
2018-11-21T20:01:00.003Z,94.92
2018-11-21T20:03:26.429Z,94.89
2018-11-21T20:05:53.247Z,94.76
2018-11-21T20:08:19.635Z,94.53
2018-11-21T20:10:48.005Z,94.47
2018-11-21T20:13:12.872Z,94.29
2018-11-21T20:15:39.304Z,94.16
2018-11-21T20:18:05.719Z,94.22
2018-11-21T20:20:32.447Z,94.15
2018-11-21T20:22:58.881Z,94.22
2018-11-21T20:25:25.236Z,94.17
2018-11-21T20:27:52.239Z,94.12
2018-11-21T20:30:18.668Z,93.83
2018-11-21T20:32:45.006Z,93.71
